Time;durP1;ratioP1;P1;durP2;ratioP2;P2;SDS_P1;SDS_P2;PMS_P1;PMS_P2;Temp;Humidity;BMP_temperature;BMP_pressure;BME280_temperature;BME280_humidity;BME280_pressure;Samples;Min_cycle;Max_cycle;Signal;HPM_P1;HPM_P2
2023/07/15 00:01:35;;;;;;;3.70;2.40;;;;;;;22.69;52.95;100055.02;109239;1252;58992;-69
2023/07/15 00:04:03;;;;;;;7.30;2.10;;;;;;;22.69;53.09;100057.45;109493;1254;62444;-69
2023/07/15 00:06:30;;;;;;;5.70;2.40;;;;;;;22.66;53.04;100063.36;109575;1253;58944;-68
2023/07/15 00:08:57;;;;;;;5.60;2.20;;;;;;;22.64;52.92;100060.39;109259;1254;59036;-68
2023/07/15 00:11:50;;;;;;;5.30;2.30;;;;;;;22.61;53.05;100058.00;109314;1253;66106;-68
2023/07/15 00:14:19;;;;;;;6.80;2.30;;;;;;;22.56;53.22;100062.17;109607;1253;59045;-68
2023/07/15 00:16:46;;;;;;;6.30;2.10;;;;;;;22.52;53.19;100064.50;109363;1253;64023;-68
2023/07/15 00:19:13;;;;;;;5.50;2.20;;;;;;;22.49;53.27;100068.93;109584;1252;58939;-69
2023/07/15 00:21:39;;;;;;;6.00;2.40;;;;;;;22.49;53.39;100072.41;109405;1254;59059;-69
2023/07/15 00:24:07;;;;;;;4.60;2.10;;;;;;;22.47;53.41;100070.29;109601;1254;64580;-69
2023/07/15 00:26:34;;;;;;;5.20;2.40;;;;;;;22.47;53.28;100068.83;109342;1252;58977;-70
2023/07/15 00:29:03;;;;;;;6.90;2.20;;;;;;;22.46;53.38;100066.64;109587;1254;63814;-69
2023/07/15 00:31:34;;;;;;;5.10;2.40;;;;;;;22.42;53.39;100064.70;109266;1253;58919;-68
2023/07/15 00:34:02;;;;;;;4.30;2.20;;;;;;;22.40;53.40;100067.11;109237;1253;58955;-68
2023/07/15 00:36:32;;;;;;;5.90;2.40;;;;;;;22.38;53.53;100068.16;109598;1255;66025;-68
2023/07/15 00:38:59;;;;;;;4.50;2.20;;;;;;;22.38;53.48;100067.17;109600;1253;58914;-69
2023/07/15 00:41:27;;;;;;;3.60;2.20;;;;;;;22.37;53.53;100070.77;109559;1253;63884;-69
2023/07/15 00:46:22;;;;;;;4.10;2.20;;;;;;;22.32;53.56;100075.17;109443;1254;58936;-69
2023/07/15 00:49:12;;;;;;;3.90;2.20;;;;;;;22.32;53.60;100075.14;109409;1253;65881;-68
2023/07/15 00:51:46;;;;;;;3.80;2.20;;;;;;;22.29;53.50;100074.98;109325;1252;58943;-69
2023/07/15 00:54:13;;;;;;;6.20;2.30;;;;;;;22.20;53.76;100079.48;109256;1253;63858;-68
2023/07/15 00:56:42;;;;;;;3.30;2.10;;;;;;;22.16;53.66;100077.70;109271;1253;58981;-68
2023/07/15 00:59:10;;;;;;;4.70;2.40;;;;;;;22.15;53.72;100075.89;109184;1255;59000;-68
2023/07/15 01:01:36;;;;;;;3.20;1.90;;;;;;;22.10;53.79;100078.81;109619;1253;65829;-70
2023/07/15 01:04:07;;;;;;;4.80;2.20;;;;;;;22.09;53.75;100078.40;109600;1254;58972;-69
2023/07/15 01:06:35;;;;;;;5.10;2.20;;;;;;;22.05;53.96;100080.73;109390;1253;62803;-69
2023/07/15 01:09:07;;;;;;;3.90;2.10;;;;;;;22.02;53.88;100083.61;109353;1254;59005;-69
2023/07/15 01:11:34;;;;;;;2.70;2.20;;;;;;;21.99;53.86;100090.09;109578;1253;58989;-70
2023/07/15 01:14:01;;;;;;;4.60;2.30;;;;;;;21.98;53.87;100092.98;109437;1253;64778;-68
2023/07/15 01:16:28;;;;;;;4.00;2.30;;;;;;;21.93;53.77;100095.38;109622;1253;58990;-68
2023/07/15 01:18:56;;;;;;;5.20;2.30;;;;;;;21.93;53.75;100096.54;109602;1254;62590;-69
2023/07/15 01:21:26;;;;;;;4.40;2.20;;;;;;;21.91;53.71;100098.86;109182;1257;59130;-69
2023/07/15 01:23:53;;;;;;;4.30;2.10;;;;;;;21.90;53.74;100100.63;109317;1253;58964;-66
2023/07/15 01:26:21;;;;;;;4.10;2.10;;;;;;;21.88;53.78;100100.90;109339;1252;64739;-66
2023/07/15 01:28:48;;;;;;;7.30;2.50;;;;;;;21.86;53.85;100107.39;109648;1253;58984;-66
2023/07/15 01:31:14;;;;;;;4.90;2.10;;;;;;;21.84;53.76;100106.06;109585;1253;64311;-66
2023/07/15 01:33:43;;;;;;;4.10;2.40;;;;;;;21.81;53.80;100107.70;109573;1252;58972;-68
2023/07/15 01:36:10;;;;;;;6.80;2.30;;;;;;;21.73;53.95;100112.02;109598;1254;58959;-68
2023/07/15 01:38:37;;;;;;;3.10;2.20;;;;;;;21.70;54.02;100114.31;109557;1254;65855;-68
2023/07/15 01:41:04;;;;;;;5.60;2.40;;;;;;;21.68;54.03;100115.88;109393;1253;58993;-68
2023/07/15 01:43:32;;;;;;;7.00;2.20;;;;;;;21.64;53.96;100118.77;109394;1254;62873;-68
2023/07/15 01:46:00;;;;;;;6.30;2.20;;;;;;;21.61;54.11;100120.06;109350;1253;58945;-68
2023/07/15 01:48:26;;;;;;;3.70;2.20;;;;;;;21.59;54.05;100124.77;109597;1254;58997;-67
2023/07/15 01:50:53;;;;;;;5.80;2.50;;;;;;;21.56;54.10;100124.96;109605;1253;65858;-67
2023/07/15 01:53:19;;;;;;;5.20;2.50;;;;;;;21.52;54.27;100123.95;109589;1254;58955;-67
2023/07/15 01:55:46;;;;;;;5.20;2.10;;;;;;;21.49;54.16;100128.23;109555;1253;62800;-67
2023/07/15 01:58:13;;;;;;;4.10;2.40;;;;;;;21.47;54.17;100129.22;109541;1255;58904;-69
2023/07/15 02:00:39;;;;;;;4.80;2.40;;;;;;;21.45;54.32;100131.65;109604;1254;58913;-68
2023/07/15 02:03:06;;;;;;;4.00;2.10;;;;;;;21.44;54.26;100133.02;109405;1254;65878;-68
2023/07/15 02:05:34;;;;;;;4.60;2.10;;;;;;;21.43;54.18;100137.30;109248;1254;58978;-68
2023/07/15 02:08:01;;;;;;;6.30;2.40;;;;;;;21.41;54.18;100137.48;109318;1253;62542;-68
2023/07/15 02:10:29;;;;;;;4.80;2.20;;;;;;;21.39;54.06;100138.34;109453;1254;58906;-68
2023/07/15 02:12:56;;;;;;;2.90;2.10;;;;;;;21.25;54.36;100143.69;109159;1254;59054;-69
2023/07/15 02:15:23;;;;;;;3.50;2.20;;;;;;;21.20;54.55;100144.89;109474;1254;64739;-68
2023/07/15 02:17:50;;;;;;;5.30;2.20;;;;;;;21.21;54.53;100144.52;109528;1254;58901;-68
2023/07/15 02:20:19;;;;;;;4.20;2.00;;;;;;;21.22;54.60;100146.76;109517;1254;63819;-69
2023/07/15 02:22:46;;;;;;;6.60;2.40;;;;;;;21.21;54.69;100147.37;109188;1254;59002;-68
2023/07/15 02:25:16;;;;;;;3.30;1.90;;;;;;;21.21;54.61;100152.74;109197;1255;58847;-68
2023/07/15 02:27:43;;;;;;;4.10;1.80;;;;;;;21.23;54.46;100146.68;109207;1254;65757;-68
2023/07/15 02:30:10;;;;;;;3.70;2.30;;;;;;;21.26;54.38;100147.32;109309;1254;59011;-68
2023/07/15 02:32:41;;;;;;;4.80;2.10;;;;;;;21.22;54.48;100147.79;109322;1254;62639;-68
2023/07/15 02:35:10;;;;;;;5.90;2.00;;;;;;;21.23;54.33;100147.92;109298;1259;58923;-68
2023/07/15 02:37:38;;;;;;;3.40;2.10;;;;;;;21.26;54.27;100150.71;109170;1254;58892;-69
2023/07/15 02:40:05;;;;;;;3.30;2.30;;;;;;;21.26;54.29;100154.03;109332;1254;64601;-68
2023/07/15 02:42:33;;;;;;;5.20;2.20;;;;;;;21.25;54.22;100151.55;109299;1253;59040;-71
2023/07/15 02:45:06;;;;;;;3.20;2.00;;;;;;;21.24;54.17;100152.58;109481;1253;62650;-68
2023/07/15 02:47:34;;;;;;;3.90;2.00;;;;;;;21.24;54.03;100153.55;109318;1253;59071;-67
2023/07/15 02:50:04;;;;;;;4.00;1.90;;;;;;;21.28;53.90;100157.11;109310;1254;58890;-68
2023/07/15 02:52:32;;;;;;;4.00;2.00;;;;;;;21.26;54.05;100159.84;109313;1254;66289;-68
2023/07/15 02:55:03;;;;;;;3.40;2.10;;;;;;;21.24;54.16;100158.89;109299;1254;59022;-68
2023/07/15 02:57:32;;;;;;;6.50;2.00;;;;;;;21.29;54.00;100160.27;109201;1254;65438;-67
2023/07/15 03:00:00;;;;;;;4.40;2.00;;;;;;;21.28;54.07;100163.77;109294;1253;58993;-68
2023/07/15 03:02:28;;;;;;;4.60;1.90;;;;;;;21.28;53.98;100166.05;109520;1253;58957;-67
2023/07/15 03:04:55;;;;;;;5.00;1.90;;;;;;;21.30;53.83;100166.18;109505;1253;64802;-68
2023/07/15 03:07:23;;;;;;;3.80;1.90;;;;;;;21.33;53.74;100165.23;109326;1253;58947;-67
2023/07/15 03:09:50;;;;;;;5.10;2.20;;;;;;;21.36;53.88;100168.75;109406;1253;62706;-67
2023/07/15 03:12:18;;;;;;;6.40;2.00;;;;;;;21.37;53.76;100169.59;109453;1254;58949;-68
2023/07/15 03:14:44;;;;;;;3.30;1.90;;;;;;;21.38;53.59;100167.65;109253;1256;58815;-67
2023/07/15 03:17:12;;;;;;;4.90;1.90;;;;;;;21.38;53.83;100165.70;109454;1254;64471;-68
2023/07/15 03:19:40;;;;;;;4.10;2.00;;;;;;;21.38;53.63;100169.55;109107;1255;59888;-68
2023/07/15 03:22:07;;;;;;;3.90;1.90;;;;;;;21.39;53.59;100164.92;109122;1256;63985;-67
2023/07/15 03:24:34;;;;;;;4.90;2.00;;;;;;;21.41;53.61;100165.30;109425;1254;58973;-69
2023/07/15 03:27:02;;;;;;;3.50;1.90;;;;;;;21.42;53.67;100167.05;109472;1254;58950;-67
2023/07/15 03:29:29;;;;;;;3.20;2.20;;;;;;;21.46;53.73;100168.94;109145;1261;64811;-67
2023/07/15 03:31:55;;;;;;;5.00;2.40;;;;;;;21.51;53.57;100170.33;109314;1254;58948;-67
2023/07/15 03:34:23;;;;;;;3.60;2.00;;;;;;;21.54;53.58;100170.36;109442;1253;63826;-67
2023/07/15 03:36:53;;;;;;;5.30;2.30;;;;;;;21.58;53.57;100174.91;109440;1254;58958;-67
2023/07/15 03:39:21;;;;;;;5.50;1.90;;;;;;;21.60;53.49;100178.69;109297;1254;58922;-67
2023/07/15 03:41:50;;;;;;;6.90;2.20;;;;;;;21.63;53.43;100179.47;109442;1254;65798;-67
2023/07/15 03:44:17;;;;;;;4.30;2.20;;;;;;;21.63;53.34;100180.67;109438;1253;58969;-68
2023/07/15 03:46:44;;;;;;;11.10;2.10;;;;;;;21.65;53.33;100176.20;109444;1253;63822;-68
2023/07/15 03:49:11;;;;;;;3.30;2.00;;;;;;;21.67;53.11;100177.82;109208;1254;59029;-69
2023/07/15 03:51:38;;;;;;;4.90;2.20;;;;;;;21.75;52.94;100181.88;109446;1254;58813;-67
2023/07/15 03:54:05;;;;;;;3.10;2.10;;;;;;;21.76;52.98;100181.80;109405;1254;64431;-67
2023/07/15 03:56:33;;;;;;;3.90;1.80;;;;;;;21.79;53.05;100182.55;109478;1253;58986;-68
2023/07/15 03:59:00;;;;;;;3.90;2.20;;;;;;;21.82;52.97;100187.38;109252;1255;63898;-68
2023/07/15 04:01:27;;;;;;;3.90;2.00;;;;;;;21.84;52.75;100191.77;109126;1255;59006;-68
2023/07/15 04:03:54;;;;;;;3.80;2.20;;;;;;;21.86;52.87;100192.89;109403;1254;58954;-67
2023/07/15 04:06:21;;;;;;;3.00;2.00;;;;;;;21.89;52.95;100196.88;109417;1254;65831;-67
2023/07/15 04:08:49;;;;;;;5.00;2.30;;;;;;;21.93;52.71;100198.73;109427;1254;59026;-67
2023/07/15 04:11:17;;;;;;;2.70;2.00;;;;;;;21.99;52.71;100204.33;109221;1254;64041;-67
2023/07/15 04:13:45;;;;;;;3.20;1.80;;;;;;;22.11;52.62;100203.20;109153;1255;58967;-69
2023/07/15 04:16:12;;;;;;;4.70;2.00;;;;;;;22.18;52.40;100204.65;109179;1256;59013;-68
2023/07/15 04:18:42;;;;;;;6.10;2.20;;;;;;;22.25;52.27;100205.38;109195;1256;64720;-68
2023/07/15 04:21:09;;;;;;;3.10;1.90;;;;;;;22.30;52.00;100205.89;109193;1254;58987;-68
2023/07/15 04:23:36;;;;;;;5.10;2.00;;;;;;;22.34;52.01;100207.72;109142;1255;62612;-68
2023/07/15 04:26:03;;;;;;;3.80;2.10;;;;;;;22.38;51.78;100207.14;109307;1254;58959;-68
2023/07/15 04:28:30;;;;;;;5.50;1.90;;;;;;;22.43;51.86;100208.58;109432;1254;59008;-68
2023/07/15 04:30:57;;;;;;;5.40;1.90;;;;;;;22.49;51.85;100209.95;109384;1254;66361;-67
2023/07/15 04:33:24;;;;;;;3.90;2.10;;;;;;;22.54;51.54;100210.88;109411;1254;59029;-68
2023/07/15 04:35:51;;;;;;;5.20;2.00;;;;;;;22.58;51.56;100214.08;109414;1254;64005;-68
2023/07/15 04:38:20;;;;;;;4.80;2.00;;;;;;;22.65;51.62;100218.15;109145;1254;59066;-68
2023/07/15 04:40:47;;;;;;;5.00;2.20;;;;;;;22.69;51.39;100223.96;109427;1254;59562;-68
2023/07/15 04:43:14;;;;;;;3.20;1.90;;;;;;;22.73;51.30;100220.15;109398;1254;64657;-69
2023/07/15 04:45:41;;;;;;;7.00;2.10;;;;;;;22.79;51.41;100213.83;109117;1254;58955;-68
2023/07/15 04:48:08;;;;;;;4.50;1.90;;;;;;;22.84;51.38;100214.55;109419;1254;63918;-68
2023/07/15 04:50:38;;;;;;;9.20;2.20;;;;;;;22.89;51.26;100219.64;109271;1256;59038;-68
2023/07/15 04:53:05;;;;;;;5.10;2.00;;;;;;;22.94;51.17;100218.21;109191;1254;59023;-68
2023/07/15 04:55:33;;;;;;;3.30;2.10;;;;;;;22.97;51.01;100214.13;109412;1254;64425;-69
2023/07/15 04:58:01;;;;;;;6.00;2.10;;;;;;;22.99;50.99;100213.68;109254;1254;59083;-68
2023/07/15 05:00:29;;;;;;;3.80;2.10;;;;;;;23.01;51.16;100217.52;109408;1254;64156;-68
2023/07/15 05:02:56;;;;;;;2.90;1.90;;;;;;;23.05;51.05;100220.50;109277;1254;58925;-68
2023/07/15 05:05:23;;;;;;;4.30;2.20;;;;;;;23.09;50.90;100224.45;109421;1254;58898;-69
2023/07/15 05:07:53;;;;;;;2.80;2.10;;;;;;;23.14;51.15;100227.35;109408;1255;65799;-67
2023/07/15 05:10:27;;;;;;;7.10;2.30;;;;;;;23.20;51.20;100224.52;109062;1256;59079;-68
2023/07/15 05:12:56;;;;;;;6.00;2.20;;;;;;;23.27;51.27;100226.11;109110;1255;64395;-68
2023/07/15 05:15:25;;;;;;;5.90;2.10;;;;;;;23.32;51.09;100227.05;109112;1255;59034;-68
2023/07/15 05:17:55;;;;;;;6.90;2.60;;;;;;;23.35;51.03;100232.49;109146;1255;58923;-68
2023/07/15 05:20:25;;;;;;;5.30;2.30;;;;;;;23.38;51.01;100237.59;109133;1256;65783;-68
2023/07/15 05:22:54;;;;;;;4.30;2.50;;;;;;;23.43;51.03;100238.98;109101;1256;58961;-68
2023/07/15 05:25:25;;;;;;;4.00;2.30;;;;;;;23.48;51.00;100241.55;109032;1256;63984;-68
2023/07/15 05:27:54;;;;;;;4.70;2.40;;;;;;;23.52;50.93;100243.50;109165;1255;58950;-67
2023/07/15 05:30:24;;;;;;;4.70;2.30;;;;;;;23.55;50.88;100239.86;109143;1255;59012;-67
2023/07/15 05:32:53;;;;;;;5.30;2.70;;;;;;;23.54;50.74;100242.50;109026;1255;64813;-67
2023/07/15 05:35:22;;;;;;;5.90;2.30;;;;;;;23.58;50.90;100246.33;109144;1255;58936;-67
2023/07/15 05:37:52;;;;;;;6.60;2.30;;;;;;;23.57;51.13;100244.59;109075;1255;64040;-68
2023/07/15 05:40:22;;;;;;;5.40;2.30;;;;;;;23.59;51.10;100246.09;109068;1256;58963;-68
2023/07/15 05:42:52;;;;;;;6.10;2.20;;;;;;;23.64;51.05;100250.36;109111;1256;58888;-68
2023/07/15 05:45:22;;;;;;;4.80;2.30;;;;;;;23.71;50.88;100249.85;109123;1256;65669;-68
2023/07/15 05:47:52;;;;;;;5.20;2.40;;;;;;;23.80;50.80;100248.13;109072;1256;59066;-68
2023/07/15 05:50:22;;;;;;;3.60;2.20;;;;;;;23.88;50.75;100252.05;109017;1256;64095;-68
2023/07/15 05:52:52;;;;;;;5.30;2.40;;;;;;;23.93;50.71;100255.08;109084;1258;59257;-68
2023/07/15 05:55:22;;;;;;;5.80;2.30;;;;;;;23.99;50.66;100255.70;109058;1256;59286;-68
2023/07/15 05:57:52;;;;;;;5.10;2.20;;;;;;;24.03;50.39;100258.12;109161;1256;66036;-68
2023/07/15 06:00:22;;;;;;;3.60;2.30;;;;;;;24.04;50.38;100265.68;109158;1256;58951;-68
2023/07/15 06:02:51;;;;;;;4.90;2.30;;;;;;;24.13;50.10;100268.08;109097;1256;62456;-68
2023/07/15 06:05:22;;;;;;;5.00;2.30;;;;;;;24.21;49.88;100266.51;109098;1256;58942;-68
2023/07/15 06:15:25;;;;;;;4.70;2.10;;;;;;;24.44;49.72;100270.40;103203;1290;600231;-69
2023/07/15 06:17:55;;;;;;;4.40;2.30;;;;;;;24.52;49.84;100272.48;104835;1270;60748;-68
2023/07/15 06:20:23;;;;;;;4.00;2.10;;;;;;;24.62;49.69;100272.55;104780;1270;60676;-69
2023/07/15 06:22:51;;;;;;;4.40;2.20;;;;;;;24.67;49.60;100276.35;105284;1254;62332;-68
2023/07/15 06:25:19;;;;;;;7.10;2.40;;;;;;;24.70;49.59;100273.84;105602;1259;59308;-68
2023/07/15 06:27:47;;;;;;;3.70;1.90;;;;;;;24.77;49.26;100275.21;105355;1254;63713;-68
2023/07/15 06:30:14;;;;;;;3.50;2.00;;;;;;;24.87;49.31;100276.48;105632;1257;187351;-68
2023/07/15 06:32:42;;;;;;;3.60;2.10;;;;;;;25.05;49.34;100276.73;105626;1267;59279;-69
2023/07/15 06:35:10;;;;;;;3.90;2.20;;;;;;;25.18;49.03;100277.59;106001;1251;62069;-70
2023/07/15 06:37:38;;;;;;;3.10;1.90;;;;;;;25.22;49.09;100282.55;106446;1251;59320;-69
2023/07/15 06:40:07;;;;;;;3.90;1.90;;;;;;;25.30;48.95;100277.09;105795;1251;63810;-70
2023/07/15 06:42:34;;;;;;;4.20;2.10;;;;;;;25.39;48.54;100277.05;105779;1257;59628;-68
2023/07/15 06:45:02;;;;;;;6.30;2.10;;;;;;;25.45;48.39;100278.35;105860;1251;59746;-70
2023/07/15 06:47:30;;;;;;;4.00;1.80;;;;;;;25.48;48.50;100276.55;105925;1254;62907;-70
2023/07/15 06:49:58;;;;;;;7.20;2.20;;;;;;;25.52;48.21;100279.35;105681;1256;59804;-71
2023/07/15 06:52:26;;;;;;;5.40;1.80;;;;;;;25.54;48.02;100282.40;105742;1256;62480;-69
2023/07/15 06:54:53;;;;;;;5.10;2.00;;;;;;;25.60;48.14;100284.48;105545;1251;59822;-73
2023/07/15 06:57:21;;;;;;;4.30;2.20;;;;;;;25.65;48.21;100283.66;105929;1251;59647;-66
2023/07/15 06:59:49;;;;;;;6.20;1.90;;;;;;;25.71;48.29;100281.71;105823;1257;64120;-68
2023/07/15 07:02:17;;;;;;;3.60;1.90;;;;;;;25.80;47.97;100281.06;105812;1251;59621;-65
2023/07/15 07:04:45;;;;;;;5.20;1.90;;;;;;;25.94;47.65;100282.79;106101;1252;63728;-69
2023/07/15 07:07:13;;;;;;;3.90;1.90;;;;;;;26.03;47.39;100281.05;105838;1257;59604;-67
2023/07/15 07:09:40;;;;;;;2.00;1.60;;;;;;;26.07;46.62;100281.36;106118;1252;59635;-67
2023/07/15 07:12:08;;;;;;;3.10;2.00;;;;;;;26.11;46.29;100278.81;105859;1251;68282;-68
2023/07/15 07:14:36;;;;;;;2.90;1.70;;;;;;;26.13;46.38;100281.41;105761;1254;59927;-65
2023/07/15 07:17:04;;;;;;;4.90;2.10;;;;;;;26.15;46.06;100285.64;105771;1258;62415;-66
2023/07/15 07:19:32;;;;;;;5.70;2.10;;;;;;;26.19;46.49;100284.55;109563;1253;57448;-65
2023/07/15 07:22:00;;;;;;;4.90;1.90;;;;;;;26.28;46.57;100288.41;109589;1254;57381;-65
2023/07/15 07:24:28;;;;;;;6.00;2.00;;;;;;;26.32;45.85;100289.72;109530;1252;64102;-67
2023/07/15 07:26:55;;;;;;;4.30;1.90;;;;;;;26.45;45.89;100290.30;109452;1253;67796;-67
2023/07/15 07:29:23;;;;;;;2.90;1.70;;;;;;;26.60;45.59;100294.27;109337;1252;63757;-66
2023/07/15 07:31:52;;;;;;;4.30;2.00;;;;;;;26.68;45.07;100295.27;109386;1253;57369;-67
2023/07/15 07:34:20;;;;;;;4.00;1.80;;;;;;;26.74;44.75;100294.46;109375;1252;57309;-68
2023/07/15 07:36:47;;;;;;;2.90;1.80;;;;;;;26.83;44.94;100297.46;109415;1253;62842;-67
2023/07/15 07:39:15;;;;;;;8.30;1.90;;;;;;;26.90;44.53;100295.95;109538;1253;68937;-69
2023/07/15 07:41:43;;;;;;;4.60;1.90;;;;;;;26.90;43.82;100300.33;109489;1254;62818;-66
2023/07/15 07:44:10;;;;;;;3.90;1.60;;;;;;;26.93;43.42;100298.32;109526;1254;57285;-66
2023/07/15 07:46:38;;;;;;;5.60;1.90;;;;;;;27.01;44.09;100300.59;109226;1257;57397;-65
2023/07/15 07:49:05;;;;;;;4.40;1.70;;;;;;;27.05;44.47;100303.06;109580;1252;64188;-65
2023/07/15 07:51:33;;;;;;;3.30;1.80;;;;;;;27.12;44.54;100301.95;109537;1253;57457;-67
2023/07/15 07:54:01;;;;;;;4.20;2.00;;;;;;;27.27;44.56;100304.64;109313;1252;65628;-67
2023/07/15 07:56:29;;;;;;;3.80;1.80;;;;;;;27.39;44.33;100305.11;109336;1257;57383;-67
2023/07/15 07:59:01;;;;;;;3.40;1.80;;;;;;;27.49;43.95;100303.23;109445;1253;57456;-72
2023/07/15 08:01:30;;;;;;;4.30;1.60;;;;;;;27.53;42.86;100301.16;109568;1253;64888;-72
2023/07/15 08:04:00;;;;;;;4.80;1.60;;;;;;;27.60;42.74;100302.51;109479;1254;60187;-68
2023/07/15 08:06:28;;;;;;;5.70;1.80;;;;;;;27.73;42.65;100298.34;109525;1253;63895;-68
2023/07/15 08:08:56;;;;;;;2.50;1.60;;;;;;;27.84;42.52;100299.98;109558;1252;57313;-68
2023/07/15 08:11:24;;;;;;;4.50;1.50;;;;;;;27.85;42.88;100302.80;109443;1254;57264;-68
2023/07/15 08:13:53;;;;;;;4.70;1.80;;;;;;;27.91;43.09;100297.30;109602;1254;62881;-69
2023/07/15 08:16:33;;;;;;;4.70;2.00;;;;;;;27.97;42.99;100298.52;109373;1253;58151;-68
2023/07/15 08:19:02;;;;;;;6.20;1.80;;;;;;;28.06;42.64;100298.28;109285;1252;63743;-68
2023/07/15 08:21:30;;;;;;;4.30;1.90;;;;;;;28.15;42.41;100302.06;109560;1251;57307;-68
2023/07/15 08:23:57;;;;;;;4.70;1.80;;;;;;;28.28;42.35;100302.30;109577;1253;57228;-69
2023/07/15 08:26:25;;;;;;;4.00;1.70;;;;;;;28.41;42.13;100306.70;109586;1253;62929;-69
2023/07/15 08:28:55;;;;;;;3.00;1.70;;;;;;;28.50;41.98;100309.19;109644;1253;57374;-69
2023/07/15 08:31:22;;;;;;;2.70;1.40;;;;;;;28.57;41.43;100310.34;109615;1253;62471;-68
2023/07/15 08:33:51;;;;;;;2.90;1.40;;;;;;;28.61;40.21;100308.96;109421;1254;57356;-69
2023/07/15 08:36:18;;;;;;;4.00;2.10;;;;;;;28.70;40.61;100311.14;109493;1254;57226;-69
2023/07/15 08:38:45;;;;;;;2.90;1.50;;;;;;;28.80;40.83;100312.85;109596;1252;64155;-69
2023/07/15 08:41:13;;;;;;;2.60;1.30;;;;;;;28.86;39.91;100314.65;109646;1253;58103;-69
2023/07/15 08:43:45;;;;;;;3.70;1.40;;;;;;;28.86;37.90;100316.29;109272;1254;63733;-69
2023/07/15 08:46:23;;;;;;;4.10;1.40;;;;;;;28.77;37.90;100314.50;109595;1253;57360;-68
2023/07/15 08:48:55;;;;;;;2.60;1.50;;;;;;;28.74;38.24;100310.72;109232;1253;57336;-70
2023/07/15 08:51:25;;;;;;;2.50;1.60;;;;;;;28.73;38.59;100310.86;109471;1254;62798;-68
2023/07/15 08:53:53;;;;;;;1.80;1.30;;;;;;;28.82;39.02;100308.26;109327;1253;58143;-66
2023/07/15 08:56:21;;;;;;;3.30;1.50;;;;;;;28.98;38.59;100312.67;109595;1252;62428;-67
2023/07/15 08:58:48;;;;;;;2.50;1.20;;;;;;;29.02;36.71;100311.06;109640;1251;57403;-67
2023/07/15 09:01:16;;;;;;;4.80;1.40;;;;;;;28.96;36.03;100309.64;109646;1253;57242;-67
2023/07/15 09:03:44;;;;;;;2.80;1.20;;;;;;;28.96;37.00;100309.98;109464;1252;64122;-67
2023/07/15 09:06:11;;;;;;;2.90;1.20;;;;;;;29.02;37.01;100312.91;109594;1254;57402;-69
2023/07/15 09:08:41;;;;;;;2.00;1.00;;;;;;;29.10;36.60;100312.23;109168;1254;63701;-68
2023/07/15 09:11:11;;;;;;;3.50;1.30;;;;;;;29.23;36.24;100310.84;109387;1256;57258;-67
2023/07/15 09:13:40;;;;;;;1.60;1.20;;;;;;;29.37;36.08;100311.23;109449;1254;57436;-68
2023/07/15 09:16:10;;;;;;;5.10;1.50;;;;;;;29.47;36.17;100310.48;109399;1254;64160;-68
2023/07/15 09:18:39;;;;;;;3.20;1.30;;;;;;;29.59;36.03;100313.58;109456;1254;58624;-68
2023/07/15 09:21:13;;;;;;;3.10;1.40;;;;;;;29.64;35.71;100317.14;109374;1254;63663;-68
2023/07/15 09:23:44;;;;;;;9.20;1.40;;;;;;;29.66;35.58;100316.69;109379;1255;57357;-68
2023/07/15 09:26:12;;;;;;;1.20;1.10;;;;;;;29.68;36.11;100312.14;109307;1254;57281;-71
2023/07/15 09:28:41;;;;;;;2.30;1.40;;;;;;;29.77;36.06;100316.63;109359;1254;62890;-68
2023/07/15 09:31:08;;;;;;;3.70;1.50;;;;;;;29.92;36.18;100311.94;109462;1256;58278;-69
2023/07/15 09:33:40;;;;;;;3.90;1.60;;;;;;;30.04;35.27;100312.39;109218;1254;63778;-68
2023/07/15 09:36:07;;;;;;;3.90;1.40;;;;;;;30.03;35.13;100317.45;109298;1254;57288;-68
2023/07/15 09:38:36;;;;;;;1.50;1.10;;;;;;;30.10;35.67;100312.77;109413;1254;57381;-68
2023/07/15 09:41:05;;;;;;;1.90;1.20;;;;;;;30.20;34.97;100311.27;109206;1254;64168;-69
2023/07/15 09:43:46;;;;;;;3.00;1.30;;;;;;;30.29;34.86;100314.60;109205;1254;58132;-68
2023/07/15 09:46:17;;;;;;;5.30;1.30;;;;;;;30.35;34.27;100310.98;109196;1254;63906;-68
2023/07/15 09:48:45;;;;;;;4.20;1.20;;;;;;;30.47;34.55;100308.55;109454;1253;57269;-68
2023/07/15 09:51:14;;;;;;;3.60;1.20;;;;;;;30.67;34.34;100308.15;109594;1253;57286;-68
2023/07/15 09:53:49;;;;;;;2.90;1.30;;;;;;;30.90;33.77;100310.80;109227;1253;64128;-67
2023/07/15 09:56:21;;;;;;;2.00;1.10;;;;;;;31.12;33.65;100310.75;109433;1254;58152;-67
2023/07/15 09:58:49;;;;;;;2.80;1.20;;;;;;;31.35;33.47;100313.98;109187;1254;63725;-67
2023/07/15 10:01:57;;;;;;;3.70;1.30;;;;;;;31.52;33.17;100314.60;109226;1254;57388;-68
2023/07/15 10:04:35;;;;;;;6.70;1.50;;;;;;;31.68;33.02;100315.05;109487;1253;57348;-68
2023/07/15 10:07:03;;;;;;;2.00;1.10;;;;;;;31.80;33.41;100313.61;109446;1254;64100;-68
2023/07/15 10:09:33;;;;;;;2.80;1.30;;;;;;;31.89;32.89;100315.42;109411;1254;58298;-69
2023/07/15 10:12:01;;;;;;;2.30;1.20;;;;;;;32.00;32.89;100311.83;109159;1254;63748;-68
2023/07/15 10:14:31;;;;;;;2.40;1.20;;;;;;;32.12;32.75;100311.08;109179;1254;57329;-68
2023/07/15 10:17:11;;;;;;;6.90;1.50;;;;;;;32.13;31.98;100315.77;109239;1254;57243;-68
2023/07/15 10:19:49;;;;;;;2.70;1.20;;;;;;;32.12;32.16;100313.42;109165;1254;64165;-67
2023/07/15 10:22:21;;;;;;;2.60;1.30;;;;;;;32.22;32.56;100309.86;109118;1254;57380;-68
2023/07/15 10:24:56;;;;;;;1.60;1.20;;;;;;;32.40;33.04;100310.84;109208;1254;63834;-69
2023/07/15 10:27:30;;;;;;;3.40;1.40;;;;;;;32.58;32.24;100315.29;109166;1254;58239;-70
2023/07/15 10:30:13;;;;;;;3.10;1.20;;;;;;;32.58;30.99;100315.19;109416;1254;58062;-69
2023/07/15 10:33:00;;;;;;;2.90;1.20;;;;;;;32.50;31.53;100315.26;109318;1254;65047;-72
2023/07/15 10:35:29;;;;;;;3.40;1.30;;;;;;;32.52;31.84;100312.98;109341;1254;58106;-69
2023/07/15 10:38:01;;;;;;;2.60;1.20;;;;;;;32.63;31.35;100310.33;109207;1255;63883;-71
2023/07/15 10:40:49;;;;;;;2.30;1.20;;;;;;;32.66;30.44;100308.87;109078;1254;58554;-70
2023/07/15 10:43:18;;;;;;;1.70;1.10;;;;;;;32.61;30.51;100305.99;109279;1254;58126;-71
2023/07/15 10:45:53;;;;;;;2.20;1.20;;;;;;;32.66;31.14;100304.81;109327;1254;67011;-70
2023/07/15 10:48:21;;;;;;;3.40;1.20;;;;;;;32.83;31.04;100301.15;109408;1254;60272;-70
2023/07/15 10:50:53;;;;;;;2.40;1.20;;;;;;;33.02;30.65;100303.59;109342;1254;65891;-71
2023/07/15 10:53:26;;;;;;;3.90;1.30;;;;;;;33.16;30.27;100306.61;109240;1256;58487;-70
2023/07/15 10:55:58;;;;;;;3.30;1.10;;;;;;;33.29;29.31;100300.22;109247;1254;58100;-70
2023/07/15 10:58:26;;;;;;;2.20;1.10;;;;;;;33.36;29.39;100303.96;109159;1259;63714;-70
2023/07/15 11:00:59;;;;;;;2.20;1.00;;;;;;;33.41;29.20;100301.89;109398;1254;65775;-69
2023/07/15 11:03:28;;;;;;;4.80;1.10;;;;;;;33.42;28.30;100296.96;109212;1254;63820;-71
2023/07/15 11:05:59;;;;;;;2.30;1.30;;;;;;;33.41;28.90;100296.80;109379;1254;58198;-70
2023/07/15 11:08:27;;;;;;;4.70;1.10;;;;;;;33.40;28.61;100295.54;109452;1256;58193;-72
2023/07/15 11:11:01;;;;;;;2.40;1.20;;;;;;;33.40;29.04;100291.48;109175;1256;64944;-72
2023/07/15 11:13:29;;;;;;;4.10;1.20;;;;;;;33.46;28.69;100291.85;109186;1255;58177;-71
2023/07/15 11:15:57;;;;;;;2.00;1.10;;;;;;;33.40;28.34;100289.78;109415;1256;63731;-69
2023/07/15 11:18:25;;;;;;;3.60;1.20;;;;;;;33.35;29.10;100289.98;109431;1254;58129;-68
2023/07/15 11:20:57;;;;;;;3.10;1.50;;;;;;;33.42;28.64;100292.75;109224;1255;58155;-68
2023/07/15 11:23:26;;;;;;;2.10;1.00;;;;;;;33.51;28.80;100292.95;109282;1256;64519;-68
2023/07/15 11:25:54;;;;;;;3.70;1.20;;;;;;;33.64;28.33;100288.27;109148;1255;58102;-70
2023/07/15 11:28:22;;;;;;;2.20;1.10;;;;;;;33.72;28.16;100289.31;109179;1255;62499;-69
2023/07/15 11:30:49;;;;;;;7.20;1.70;;;;;;;33.83;28.58;100286.48;109244;1256;58163;-71
2023/07/15 11:33:17;;;;;;;7.20;1.40;;;;;;;33.95;29.20;100287.70;109272;1255;58097;-69
2023/07/15 11:35:45;;;;;;;3.20;1.20;;;;;;;34.11;29.31;100283.42;109272;1255;65051;-72